Time;durP1;ratioP1;P1;durP2;ratioP2;P2;SDS_P1;SDS_P2;PMS_P1;PMS_P2;Temp;Humidity;BMP_temperature;BMP_pressure;BME280_temperature;BME280_humidity;BME280_pressure;Samples;Min_cycle;Max_cycle;Signal;HPM_P1;HPM_P2
2022/03/31 00:03:36;;;;;;;19.35;10.48;;;;;;;11.74;100.00;99323.56;4752400;28;20574;-70
2022/03/31 00:06:02;;;;;;;18.23;10.73;;;;;;;12.39;100.00;99346.09;4333931;28;10000719;-67
2022/03/31 00:08:27;;;;;;;20.55;10.52;;;;;;;11.99;100.00;99344.50;5027256;28;20025;-69
2022/03/31 00:10:55;;;;;;;23.02;10.20;;;;;;;11.68;100.00;99325.53;5026773;28;20029;-67
2022/03/31 00:13:27;;;;;;;19.90;10.63;;;;;;;12.01;100.00;99349.53;5026940;28;20041;-65
2022/03/31 00:15:55;;;;;;;20.77;10.40;;;;;;;11.91;100.00;99336.38;5027076;28;20057;-68
2022/03/31 00:18:21;;;;;;;20.30;10.32;;;;;;;11.95;100.00;99370.16;5026676;28;20570;-65
2022/03/31 00:20:46;;;;;;;22.58;11.38;;;;;;;12.08;100.00;99344.09;5030971;28;20124;-69
2022/03/31 00:23:13;;;;;;;20.45;11.65;;;;;;;11.90;100.00;99347.47;5030733;28;20516;-67
2022/03/31 00:25:39;;;;;;;20.83;10.75;;;;;;;12.08;100.00;99359.38;5029143;28;20388;-69
2022/03/31 00:28:05;;;;;;;24.10;11.10;;;;;;;12.01;100.00;99334.25;5030857;28;20025;-69
2022/03/31 00:30:31;;;;;;;19.25;10.75;;;;;;;11.30;100.00;99320.31;5030555;28;20095;-68
2022/03/31 00:32:57;;;;;;;21.33;12.13;;;;;;;11.78;100.00;99348.00;5030447;28;20068;-69
2022/03/31 00:35:23;;;;;;;18.92;11.10;;;;;;;12.04;100.00;99346.84;5030761;28;20065;-68
2022/03/31 00:37:49;;;;;;;21.13;11.75;;;;;;;12.15;100.00;99348.03;5030360;28;20487;-68
2022/03/31 00:40:16;;;;;;;23.63;13.02;;;;;;;11.97;100.00;99358.19;5030357;28;20084;-69
2022/03/31 00:42:44;;;;;;;24.52;13.07;;;;;;;11.88;100.00;99345.88;5030184;28;20235;-69
2022/03/31 00:45:15;;;;;;;24.90;13.60;;;;;;;11.73;100.00;99321.88;5030460;28;20049;-70
2022/03/31 00:47:40;;;;;;;24.50;14.45;;;;;;;11.59;100.00;99321.63;5030365;28;20034;-67
2022/03/31 00:50:07;;;;;;;29.20;15.18;;;;;;;11.86;100.00;99348.50;5030600;28;20037;-69
2022/03/31 00:52:32;;;;;;;24.27;13.20;;;;;;;11.77;100.00;99320.84;5029710;28;20725;-69
2022/03/31 00:54:57;;;;;;;23.35;12.98;;;;;;;11.60;100.00;99335.19;5029821;28;20040;-67
2022/03/31 00:57:23;;;;;;;17.38;11.30;;;;;;;11.55;100.00;99317.53;5030188;28;20064;-68
2022/03/31 00:59:48;;;;;;;25.48;11.35;;;;;;;11.74;100.00;99333.75;5029893;28;20464;-68
2022/03/31 01:02:14;;;;;;;20.80;11.48;;;;;;;11.49;100.00;99355.97;5030205;28;20053;-68
2022/03/31 01:04:40;;;;;;;25.40;11.68;;;;;;;11.05;100.00;99322.19;5030445;28;20037;-68
2022/03/31 01:07:05;;;;;;;22.00;11.50;;;;;;;11.29;100.00;99336.44;5029340;28;20041;-67
2022/03/31 01:09:32;;;;;;;21.45;12.35;;;;;;;11.50;100.00;99341.53;5030570;28;20029;-68
2022/03/31 01:12:00;;;;;;;24.02;12.40;;;;;;;11.15;100.00;99303.13;5030253;28;20033;-68
2022/03/31 01:14:26;;;;;;;23.80;12.82;;;;;;;11.01;100.00;99323.19;5030214;28;20045;-65
2022/03/31 01:16:51;;;;;;;29.13;13.20;;;;;;;11.25;100.00;99339.22;5030035;28;20072;-69
2022/03/31 01:19:17;;;;;;;21.95;11.93;;;;;;;11.45;100.00;99338.38;5029343;28;20025;-68
2022/03/31 01:21:48;;;;;;;23.15;11.27;;;;;;;11.04;100.00;99304.44;5029680;28;20021;-68
2022/03/31 01:24:14;;;;;;;24.90;12.10;;;;;;;10.95;100.00;99302.28;5029951;28;20029;-69
2022/03/31 01:26:40;;;;;;;20.20;11.82;;;;;;;11.33;100.00;99332.06;5029681;28;20576;-69
2022/03/31 01:29:08;;;;;;;18.45;11.77;;;;;;;11.33;100.00;99319.34;5028901;28;20060;-69
2022/03/31 01:31:34;;;;;;;26.83;12.38;;;;;;;11.40;100.00;99330.09;5029803;28;20030;-69
2022/03/31 01:33:59;;;;;;;27.65;11.88;;;;;;;11.25;100.00;99304.38;5029571;28;20044;-69
2022/03/31 01:36:26;;;;;;;22.35;12.00;;;;;;;11.40;100.00;99333.47;5029245;28;20036;-67
2022/03/31 01:38:52;;;;;;;22.27;12.20;;;;;;;11.34;100.00;99331.19;5029397;28;20087;-68
2022/03/31 01:41:17;;;;;;;26.00;12.88;;;;;;;11.39;100.00;99334.34;5029071;28;20068;-68
2022/03/31 01:43:43;;;;;;;25.27;13.73;;;;;;;11.04;100.00;99337.50;5029385;28;20044;-68
2022/03/31 01:46:08;;;;;;;26.55;12.98;;;;;;;10.97;100.00;99291.16;5029356;28;20091;-68
2022/03/31 01:48:35;;;;;;;27.85;12.68;;;;;;;11.05;100.00;99329.00;5027789;28;20030;-68
2022/03/31 01:51:04;;;;;;;25.65;12.20;;;;;;;10.83;100.00;99318.03;5029138;28;20087;-67
2022/03/31 01:53:30;;;;;;;25.63;12.60;;;;;;;10.83;100.00;99307.88;5028686;28;20555;-69
2022/03/31 01:55:56;;;;;;;26.27;13.00;;;;;;;10.96;100.00;99324.28;5029418;28;20034;-69
2022/03/31 01:58:22;;;;;;;24.83;12.05;;;;;;;10.62;100.00;99270.59;5029271;28;20087;-68
2022/03/31 02:00:47;;;;;;;22.17;12.35;;;;;;;10.71;100.00;99319.34;5029095;28;20750;-69
2022/03/31 02:03:13;;;;;;;22.85;12.15;;;;;;;10.58;100.00;99307.19;5029194;28;20060;-67
2022/03/31 02:05:38;;;;;;;27.13;12.63;;;;;;;10.56;100.00;99294.50;5028256;28;20497;-68
2022/03/31 02:08:04;;;;;;;23.05;12.60;;;;;;;10.39;100.00;99296.88;5028923;28;20025;-68
2022/03/31 02:10:29;;;;;;;23.88;12.10;;;;;;;10.33;100.00;99281.88;5029096;28;20410;-65
2022/03/31 02:12:55;;;;;;;22.58;12.35;;;;;;;10.41;100.00;99280.72;5029081;28;20029;-68
2022/03/31 02:15:21;;;;;;;23.88;12.68;;;;;;;9.95;100.00;99279.91;5028788;28;20064;-70
2022/03/31 02:17:48;;;;;;;27.40;12.55;;;;;;;10.15;100.00;99305.44;5028349;28;20033;-69
2022/03/31 02:20:14;;;;;;;25.48;12.80;;;;;;;10.00;100.00;99305.97;5028423;28;20494;-69
2022/03/31 02:22:40;;;;;;;24.95;12.75;;;;;;;9.88;100.00;99259.00;5028682;28;20509;-68
2022/03/31 02:25:10;;;;;;;24.20;12.68;;;;;;;9.85;100.00;99286.19;5028887;28;20033;-68
2022/03/31 02:27:36;;;;;;;27.13;13.45;;;;;;;9.73;100.00;99315.38;5028280;28;20034;-68
2022/03/31 02:30:03;;;;;;;25.50;12.07;;;;;;;9.75;100.00;99320.41;5026760;28;20070;-66
2022/03/31 02:32:28;;;;;;;25.30;13.10;;;;;;;9.72;100.00;99323.91;5028464;28;20026;-68
2022/03/31 02:34:54;;;;;;;26.77;14.07;;;;;;;9.68;100.00;99301.22;5027873;28;20083;-69
2022/03/31 02:37:19;;;;;;;27.98;13.70;;;;;;;9.93;100.00;99290.13;5028216;28;20037;-68
2022/03/31 02:39:45;;;;;;;18.42;12.88;;;;;;;9.85;100.00;99283.66;5026799;28;20586;-69
2022/03/31 02:42:11;;;;;;;27.67;12.48;;;;;;;9.49;100.00;99306.09;5026940;28;20527;-69
2022/03/31 02:44:37;;;;;;;20.85;12.82;;;;;;;9.39;100.00;99299.66;5028323;28;20037;-69
2022/03/31 02:47:02;;;;;;;23.67;12.48;;;;;;;9.53;100.00;99294.94;5028066;28;20481;-67
2022/03/31 02:49:28;;;;;;;22.17;12.80;;;;;;;9.41;100.00;99308.06;5027831;28;20041;-69
2022/03/31 02:51:53;;;;;;;24.75;13.63;;;;;;;9.74;100.00;99309.44;5026776;28;20026;-67
2022/03/31 02:57:03;;;;;;;26.55;13.65;;;;;;;9.38;100.00;99320.84;5027814;28;20138;-68
2022/03/31 02:59:30;;;;;;;29.58;14.43;;;;;;;9.41;100.00;99315.66;5027765;28;20864;-68
2022/03/31 03:01:56;;;;;;;25.38;13.15;;;;;;;9.72;100.00;99321.34;5027280;28;20132;-69
2022/03/31 03:04:23;;;;;;;33.38;13.68;;;;;;;9.35;100.00;99305.72;5028046;28;20049;-68
2022/03/31 03:06:48;;;;;;;24.70;13.40;;;;;;;9.53;100.00;99322.84;5027164;28;20033;-68
2022/03/31 03:09:14;;;;;;;28.20;13.60;;;;;;;9.61;100.00;99296.34;5027714;28;20029;-69
2022/03/31 03:11:39;;;;;;;25.35;13.27;;;;;;;9.69;100.00;99310.47;5028070;28;20025;-69
2022/03/31 03:14:05;;;;;;;23.50;12.60;;;;;;;9.78;100.00;99312.69;5027301;28;20021;-64
2022/03/31 03:16:31;;;;;;;25.77;13.10;;;;;;;10.03;100.00;99321.06;5027559;28;20038;-69
2022/03/31 03:18:56;;;;;;;24.75;12.32;;;;;;;10.00;100.00;99278.03;5027171;28;20494;-69
2022/03/31 03:21:21;;;;;;;27.25;12.90;;;;;;;10.16;100.00;99314.72;5025795;28;20025;-69
2022/03/31 03:23:48;;;;;;;27.13;13.35;;;;;;;10.33;100.00;99309.81;5027344;28;20021;-68
2022/03/31 03:26:14;;;;;;;28.10;13.27;;;;;;;10.18;100.00;99278.19;5027274;28;20029;-70
2022/03/31 03:28:39;;;;;;;25.90;12.70;;;;;;;10.49;100.00;99305.81;5027203;28;20026;-66
2022/03/31 03:31:06;;;;;;;27.80;13.07;;;;;;;10.22;100.00;99284.81;5026891;28;20033;-69
2022/03/31 03:33:32;;;;;;;29.23;13.40;;;;;;;10.24;100.00;99262.72;5027608;28;20033;-69
2022/03/31 03:36:04;;;;;;;25.58;13.70;;;;;;;10.29;100.00;99291.34;5027089;28;20140;-68
2022/03/31 03:38:31;;;;;;;;;;;;;;;10.25;100.00;99299.97;5027591;28;20036;-68
2022/03/31 03:40:56;;;;;;;32.08;15.32;;;;;;;10.48;100.00;99297.34;5027017;28;20306;-68
2022/03/31 03:43:21;;;;;;;28.45;14.10;;;;;;;10.36;100.00;99297.81;5041829;28;20041;-67
2022/03/31 03:45:47;;;;;;;29.33;13.38;;;;;;;10.54;100.00;99301.38;5025914;28;20048;-69
2022/03/31 03:48:12;;;;;;;53.65;30.65;;;;;;;10.20;100.00;99266.25;5027294;28;20029;-69
2022/03/31 03:50:38;;;;;;;46.13;24.95;;;;;;;10.42;100.00;99302.69;5027247;28;20030;-68
2022/03/31 03:53:05;;;;;;;31.23;15.65;;;;;;;10.43;100.00;99271.31;5026764;28;20029;-69
2022/03/31 03:55:32;;;;;;;25.02;13.95;;;;;;;10.33;100.00;99277.63;5026428;28;20098;-68
2022/03/31 03:57:57;;;;;;;33.95;15.23;;;;;;;10.60;100.00;99285.88;5027138;28;20454;-68
2022/03/31 04:00:23;;;;;;;25.95;14.57;;;;;;;10.41;100.00;99300.19;5027195;28;20544;-69
2022/03/31 04:02:48;;;;;;;31.27;14.82;;;;;;;10.48;100.00;99310.06;5026763;28;20499;-68
2022/03/31 04:05:14;;;;;;;33.80;14.25;;;;;;;10.39;100.00;99292.66;5026497;28;20030;-69
2022/03/31 04:07:39;;;;;;;29.88;14.80;;;;;;;10.27;100.00;99289.72;5029886;28;20044;-70
2022/03/31 04:10:08;;;;;;;30.17;16.05;;;;;;;9.90;100.00;99266.56;5030331;28;20037;-70
2022/03/31 04:12:33;;;;;;;32.17;15.65;;;;;;;10.27;100.00;99288.03;5028892;28;20021;-70
2022/03/31 04:14:59;;;;;;;30.88;15.90;;;;;;;9.91;100.00;99268.22;5030657;28;20032;-70
2022/03/31 04:17:24;;;;;;;27.83;14.25;;;;;;;9.72;100.00;99303.59;5030270;28;20030;-70
2022/03/31 04:19:50;;;;;;;31.17;14.43;;;;;;;10.05;100.00;99273.59;5029314;28;20030;-68
2022/03/31 04:22:15;;;;;;;30.15;14.60;;;;;;;10.09;100.00;99303.91;5030611;28;20032;-68
2022/03/31 04:24:40;;;;;;;26.88;14.07;;;;;;;9.89;100.00;99293.66;5030398;28;20021;-69
2022/03/31 04:27:06;;;;;;;32.13;15.20;;;;;;;9.80;100.00;99291.47;5030207;28;20053;-70
2022/03/31 04:29:31;;;;;;;29.73;14.40;;;;;;;9.87;100.00;99287.81;5030530;28;20495;-69
2022/03/31 04:31:57;;;;;;;29.13;14.75;;;;;;;9.97;100.00;99289.13;5030480;28;20029;-69
2022/03/31 04:34:22;;;;;;;29.58;15.32;;;;;;;9.79;100.00;99302.47;5030276;28;20029;-69
2022/03/31 04:36:48;;;;;;;34.58;15.88;;;;;;;9.64;100.00;99290.34;5030368;28;20486;-69
2022/03/31 04:39:14;;;;;;;28.10;16.77;;;;;;;9.68;100.00;99284.28;5030404;28;20069;-70
2022/03/31 04:41:41;;;;;;;27.70;15.52;;;;;;;9.75;100.00;99292.47;5028744;28;20053;-69
2022/03/31 04:44:07;;;;;;;31.23;16.55;;;;;;;9.75;100.00;99283.16;5030875;28;20041;-69
2022/03/31 04:46:33;;;;;;;31.38;15.02;;;;;;;9.48;100.00;99292.59;5029076;28;20553;-70
2022/03/31 04:49:02;;;;;;;29.27;15.13;;;;;;;9.39;100.00;99264.16;5030252;28;20060;-69
2022/03/31 04:51:28;;;;;;;31.88;16.15;;;;;;;9.73;100.00;99294.25;5030312;28;20116;-69
2022/03/31 04:53:54;;;;;;;36.22;18.35;;;;;;;10.06;100.00;99298.13;5028989;28;20487;-70
2022/03/31 04:56:20;;;;;;;32.88;17.08;;;;;;;10.07;100.00;99300.59;5029751;28;20037;-69
2022/03/31 04:58:45;;;;;;;34.03;16.80;;;;;;;10.05;100.00;99299.00;5030164;28;20487;-70
2022/03/31 05:01:12;;;;;;;34.17;16.75;;;;;;;9.90;100.00;99264.03;5030141;28;20030;-68
2022/03/31 05:03:39;;;;;;;29.35;15.75;;;;;;;9.77;100.00;99245.03;5029963;28;20054;-69
2022/03/31 05:06:05;;;;;;;27.30;15.57;;;;;;;10.18;100.00;99293.44;5033305;28;20407;-69
2022/03/31 05:08:31;;;;;;;34.55;16.42;;;;;;;10.43;100.00;99306.88;5033454;28;20480;-70
2022/03/31 05:10:56;;;;;;;38.08;17.45;;;;;;;10.48;100.00;99300.81;5033422;28;20035;-70
2022/03/31 05:13:22;;;;;;;32.65;18.05;;;;;;;10.42;100.00;99291.66;5033798;28;20029;-70
2022/03/31 05:15:47;;;;;;;32.10;15.23;;;;;;;10.54;100.00;99303.09;5033842;28;20029;-69
2022/03/31 05:18:13;;;;;;;34.50;16.65;;;;;;;10.80;100.00;99302.88;5033755;28;20108;-67
2022/03/31 05:20:39;;;;;;;31.63;16.48;;;;;;;10.96;100.00;99303.94;5033533;28;20514;-70
2022/03/31 05:23:05;;;;;;;34.15;17.40;;;;;;;10.55;100.00;99264.91;5033149;28;20022;-70
2022/03/31 05:25:30;;;;;;;34.95;16.42;;;;;;;10.89;100.00;99285.56;5033099;28;20513;-70
2022/03/31 05:27:58;;;;;;;39.72;22.88;;;;;;;10.85;100.00;99283.22;5033123;28;20427;-69
2022/03/31 05:30:24;;;;;;;37.60;18.13;;;;;;;11.03;100.00;99274.84;5033232;28;20025;-68
2022/03/31 05:32:52;;;;;;;27.48;13.38;;;;;;;10.85;100.00;99238.28;5033229;28;20029;-70
2022/03/31 05:35:18;;;;;;;25.30;14.65;;;;;;;11.39;100.00;99260.53;5033291;28;20044;-68
2022/03/31 05:37:44;;;;;;;33.95;16.65;;;;;;;11.27;100.00;99278.88;5033061;28;20025;-69
2022/03/31 05:40:11;;;;;;;29.40;16.63;;;;;;;11.09;100.00;99259.31;5032895;28;20036;-68
2022/03/31 05:42:37;;;;;;;33.78;17.30;;;;;;;11.32;100.00;99287.16;5032924;28;20025;-68
2022/03/31 05:45:05;;;;;;;30.90;16.20;;;;;;;11.32;100.00;99276.97;5033180;28;20475;-69
2022/03/31 05:47:30;;;;;;;31.58;15.85;;;;;;;11.47;100.00;99303.50;5033121;28;20483;-70
2022/03/31 05:49:56;;;;;;;28.58;15.13;;;;;;;11.50;100.00;99324.56;5032765;28;20026;-69
2022/03/31 05:52:22;;;;;;;33.50;15.98;;;;;;;11.53;100.00;99305.78;5031455;28;20025;-69
2022/03/31 05:54:50;;;;;;;35.47;17.00;;;;;;;12.17;100.00;99330.13;5032459;28;20068;-68
2022/03/31 05:57:16;;;;;;;34.78;16.10;;;;;;;11.87;100.00;99314.47;5032571;28;20541;-69
2022/03/31 05:59:42;;;;;;;32.05;15.50;;;;;;;11.81;100.00;99262.97;5032688;28;20128;-69
2022/03/31 06:02:08;;;;;;;33.70;15.13;;;;;;;12.58;100.00;99302.72;5032219;28;20132;-69
2022/03/31 06:04:34;;;;;;;29.63;15.18;;;;;;;12.52;100.00;99297.94;5031968;28;20041;-69
2022/03/31 06:07:00;;;;;;;32.85;15.95;;;;;;;12.93;100.00;99274.63;5032183;28;20033;-69
2022/03/31 06:09:25;;;;;;;27.13;14.88;;;;;;;12.99;100.00;99276.06;5032281;28;20040;-69
2022/03/31 06:11:51;;;;;;;30.05;14.02;;;;;;;12.87;100.00;99261.38;5031155;28;20029;-70
2022/03/31 06:14:16;;;;;;;28.45;13.80;;;;;;;13.18;100.00;99312.56;5033105;28;20025;-70
2022/03/31 06:16:42;;;;;;;30.80;13.75;;;;;;;12.94;100.00;99293.31;5032535;28;20025;-69
2022/03/31 06:19:10;;;;;;;28.48;14.65;;;;;;;12.76;100.00;99261.88;5032185;28;20021;-68
2022/03/31 06:21:36;;;;;;;35.83;15.15;;;;;;;13.11;100.00;99270.41;5032195;28;20465;-69
2022/03/31 06:24:03;;;;;;;32.45;14.93;;;;;;;13.50;100.00;99319.47;5031869;28;20032;-68
2022/03/31 06:26:29;;;;;;;31.40;14.38;;;;;;;13.79;100.00;99308.56;5030887;28;20082;-69
2022/03/31 06:28:55;;;;;;;32.15;14.52;;;;;;;13.81;100.00;99305.94;5032135;28;20029;-69
2022/03/31 06:31:24;;;;;;;32.63;14.52;;;;;;;13.67;100.00;99301.53;5031915;28;20042;-68
2022/03/31 06:33:50;;;;;;;29.42;13.60;;;;;;;13.58;100.00;99271.38;5032160;28;20029;-68
2022/03/31 06:36:16;;;;;;;26.65;13.70;;;;;;;14.00;100.00;99328.81;5032013;28;20029;-67
2022/03/31 06:38:42;;;;;;;33.75;13.10;;;;;;;13.61;100.00;99280.59;5031544;28;20091;-69
2022/03/31 06:41:10;;;;;;;28.30;13.43;;;;;;;13.80;100.00;99283.84;5030667;28;20033;-69
2022/03/31 06:43:40;;;;;;;29.05;13.93;;;;;;;14.02;100.00;99283.53;5031970;28;20026;-69
2022/03/31 06:46:07;;;;;;;38.25;14.70;;;;;;;14.39;100.00;99296.88;5032020;28;20033;-68
2022/03/31 06:48:33;;;;;;;32.83;14.43;;;;;;;14.56;100.00;99324.88;5031820;28;20030;-69
2022/03/31 06:50:58;;;;;;;31.85;13.52;;;;;;;14.42;100.00;99308.66;5031628;28;20038;-68
2022/03/31 06:53:25;;;;;;;36.75;13.85;;;;;;;14.41;100.00;99328.28;5031639;28;20510;-69
2022/03/31 06:55:50;;;;;;;34.53;13.00;;;;;;;14.64;100.00;99321.91;5031789;28;20145;-69
2022/03/31 06:58:16;;;;;;;29.77;14.82;;;;;;;14.46;100.00;99320.38;5031296;28;20061;-69
2022/03/31 07:00:43;;;;;;;34.22;15.88;;;;;;;14.30;100.00;99287.13;5031294;28;20478;-69
2022/03/31 07:03:08;;;;;;;33.75;16.02;;;;;;;14.66;100.00;99330.31;5031266;28;20056;-69
2022/03/31 07:05:37;;;;;;;36.15;17.10;;;;;;;14.86;100.00;99324.09;5031164;28;20030;-69
2022/03/31 07:08:03;;;;;;;48.97;22.75;;;;;;;14.77;100.00;99304.97;5031429;28;20033;-69
2022/03/31 07:10:29;;;;;;;41.13;16.85;;;;;;;14.69;100.00;99309.69;5031688;28;20035;-69
2022/03/31 07:12:54;;;;;;;36.33;16.50;;;;;;;14.55;100.00;99302.78;5031745;28;20395;-70
2022/03/31 07:15:20;;;;;;;38.05;15.77;;;;;;;14.78;100.00;99315.13;5030064;28;20422;-69
2022/03/31 07:17:45;;;;;;;38.03;15.57;;;;;;;14.59;100.00;99299.16;5031121;28;20040;-69
2022/03/31 07:20:11;;;;;;;36.85;15.95;;;;;;;15.16;100.00;99323.19;5029622;28;20035;-68
2022/03/31 07:22:46;;;;;;;37.85;14.48;;;;;;;14.94;100.00;99292.06;5030839;28;20052;-69
2022/03/31 07:25:13;;;;;;;36.88;13.65;;;;;;;15.14;100.00;99319.91;5031193;28;20076;-69
2022/03/31 07:27:39;;;;;;;39.53;14.20;;;;;;;15.25;100.00;99332.09;5030817;28;20032;-69
2022/03/31 07:30:04;;;;;;;36.47;16.88;;;;;;;15.32;100.00;99334.22;5031111;28;20022;-69
2022/03/31 07:32:30;;;;;;;35.58;16.90;;;;;;;15.32;100.00;99321.41;5030971;28;20049;-69
2022/03/31 07:34:55;;;;;;;39.40;15.70;;;;;;;15.36;100.00;99314.38;5030655;28;20091;-69
2022/03/31 07:37:21;;;;;;;45.15;20.08;;;;;;;15.56;100.00;99320.03;5029840;28;20029;-69
2022/03/31 07:39:46;;;;;;;38.05;15.40;;;;;;;15.39;100.00;99286.84;5031098;28;20410;-69
2022/03/31 07:42:13;;;;;;;41.25;16.67;;;;;;;15.56;100.00;99299.53;5030752;28;20036;-68
2022/03/31 07:44:39;;;;;;;39.15;13.45;;;;;;;15.50;100.00;99276.00;5030841;28;20068;-68
2022/03/31 07:47:06;;;;;;;36.65;13.50;;;;;;;15.78;100.00;99293.94;5030817;28;20029;-69
2022/03/31 07:49:31;;;;;;;34.45;12.60;;;;;;;15.85;100.00;99291.81;5030385;28;20036;-69
2022/03/31 07:51:56;;;;;;;32.45;12.18;;;;;;;16.15;100.00;99301.03;5030738;28;20030;-68
2022/03/31 07:54:22;;;;;;;38.42;12.32;;;;;;;16.03;100.00;99280.44;5031003;28;20539;-69
2022/03/31 07:56:49;;;;;;;36.15;11.90;;;;;;;16.37;100.00;99298.78;5030750;28;20033;-69
2022/03/31 07:59:14;;;;;;;38.22;11.43;;;;;;;16.90;100.00;99310.81;5030737;28;20091;-69
2022/03/31 08:01:40;;;;;;;37.65;12.18;;;;;;;16.91;100.00;99293.66;5030605;28;20595;-69
2022/03/31 08:04:06;;;;;;;33.80;11.80;;;;;;;16.99;100.00;99317.94;5030374;28;20029;-69
2022/03/31 08:06:32;;;;;;;42.50;11.60;;;;;;;17.16;100.00;99325.34;5030771;28;20045;-69
2022/03/31 08:08:58;;;;;;;36.42;12.18;;;;;;;17.12;100.00;99328.22;5030710;28;20407;-67
2022/03/31 08:11:23;;;;;;;35.22;11.77;;;;;;;17.10;100.00;99323.19;5030555;28;20029;-68
2022/03/31 08:13:49;;;;;;;31.92;12.18;;;;;;;16.97;100.00;99299.22;5030480;28;20034;-69
2022/03/31 08:16:14;;;;;;;40.40;12.35;;;;;;;16.79;100.00;99285.00;5030593;28;20488;-69
2022/03/31 08:18:40;;;;;;;32.10;11.68;;;;;;;17.24;100.00;99342.84;5028664;28;20038;-69
2022/03/31 08:21:05;;;;;;;41.78;11.00;;;;;;;17.16;100.00;99343.34;5029299;28;20121;-70
2022/03/31 08:23:31;;;;;;;36.30;9.68;;;;;;;17.25;100.00;99301.63;5030553;28;20480;-69
2022/03/31 08:25:57;;;;;;;47.20;18.85;;;;;;;17.78;100.00;99318.63;5030540;28;20064;-69
2022/03/31 08:28:25;;;;;;;54.75;26.65;;;;;;;17.77;100.00;99296.41;5030374;28;20053;-70
2022/03/31 08:30:51;;;;;;;37.83;10.23;;;;;;;17.77;100.00;99334.16;5030381;28;20037;-69
2022/03/31 08:33:17;;;;;;;43.15;16.38;;;;;;;17.80;100.00;99349.38;5028693;28;20051;-69
2022/03/31 08:35:42;;;;;;;36.10;10.80;;;;;;;17.75;100.00;99329.13;5030428;28;20476;-69
2022/03/31 08:38:08;;;;;;;50.08;16.15;;;;;;;18.66;100.00;99327.94;5028929;28;20038;-69
2022/03/31 08:40:33;;;;;;;50.63;18.25;;;;;;;18.98;100.00;99298.06;5032497;28;20427;-68
2022/03/31 08:43:00;;;;;;;49.42;11.55;;;;;;;18.96;100.00;99303.34;5034169;28;20060;-69
2022/03/31 08:45:26;;;;;;;36.80;9.43;;;;;;;18.18;100.00;99296.94;5034159;28;20033;-70
2022/03/31 08:47:53;;;;;;;40.45;8.70;;;;;;;18.56;100.00;99294.25;5033612;28;20033;-68
2022/03/31 08:50:21;;;;;;;50.90;12.35;;;;;;;18.93;100.00;99270.06;5032688;28;20025;-69
2022/03/31 08:52:47;;;;;;;42.28;11.07;;;;;;;19.19;100.00;99267.31;5032685;28;20033;-68
2022/03/31 08:55:13;;;;;;;52.78;11.57;;;;;;;19.27;100.00;99267.56;5033795;28;20029;-69
2022/03/31 08:57:44;;;;;;;41.15;10.45;;;;;;;19.69;100.00;99254.00;5033896;28;20025;-69
2022/03/31 09:00:11;;;;;;;48.80;10.02;;;;;;;19.06;100.00;99251.94;5034080;28;20029;-66
2022/03/31 09:02:37;;;;;;;43.85;10.40;;;;;;;19.31;100.00;99261.25;5033154;28;20056;-69
2022/03/31 09:05:09;;;;;;;47.30;11.77;;;;;;;20.09;100.00;99255.16;5034047;28;20156;-69
2022/03/31 09:07:35;;;;;;;58.28;10.45;;;;;;;20.01;100.00;99221.38;5033685;28;20037;-69
2022/03/31 09:10:01;;;;;;;53.10;10.35;;;;;;;20.27;100.00;99219.34;5033736;28;21097;-70
2022/03/31 09:12:37;;;;;;;68.68;9.40;;;;;;;19.29;100.00;99220.13;5033599;28;20467;-69
2022/03/31 09:15:13;;;;;;;44.42;9.13;;;;;;;19.46;100.00;99219.69;5033616;28;20048;-65
2022/03/31 09:17:39;;;;;;;52.63;9.73;;;;;;;19.75;100.00;99223.41;5033594;28;20511;-70
2022/03/31 09:20:05;;;;;;;46.10;8.77;;;;;;;20.62;100.00;99225.88;5032261;28;20065;-69
2022/03/31 09:22:42;;;;;;;57.70;10.48;;;;;;;20.24;100.00;99206.69;5033423;28;20499;-70
2022/03/31 09:25:08;;;;;;;43.13;8.95;;;;;;;20.28;100.00;99195.19;5033567;28;20474;-70
2022/03/31 09:27:34;;;;;;;56.50;10.18;;;;;;;20.10;100.00;99201.78;5032836;28;20534;-66
2022/03/31 09:30:07;;;;;;;48.30;9.43;;;;;;;20.39;100.00;99219.19;5032212;28;20021;-70
2022/03/31 09:32:32;;;;;;;50.88;10.38;;;;;;;20.26;100.00;99208.22;5033427;28;20035;-70
2022/03/31 09:35:05;;;;;;;64.18;9.45;;;;;;;19.57;100.00;99198.25;5033092;28;20025;-69
2022/03/31 09:37:31;;;;;;;48.58;9.85;;;;;;;20.47;100.00;99214.22;5031849;28;20033;-69
2022/03/31 09:39:57;;;;;;;46.38;9.00;;;;;;;20.34;100.00;99203.22;5033014;28;20040;-70
2022/03/31 09:42:22;;;;;;;47.15;10.02;;;;;;;20.31;100.00;99188.00;5033217;28;20037;-70
2022/03/31 09:44:58;;;;;;;37.63;9.27;;;;;;;20.22;100.00;99170.69;5033176;28;20116;-70
2022/03/31 09:47:26;;;;;;;39.00;9.00;;;;;;;20.16;100.00;99162.56;5032844;28;20041;-70
2022/03/31 09:49:56;;;;;;;39.58;9.10;;;;;;;19.94;100.00;99183.28;5033080;28;20033;-70
2022/03/31 09:52:22;;;;;;;41.22;9.45;;;;;;;19.82;100.00;99170.41;5031086;28;20033;-68
2022/03/31 09:54:48;;;;;;;40.58;8.55;;;;;;;19.79;100.00;99213.66;5032775;28;20039;-70
2022/03/31 09:57:14;;;;;;;44.25;9.70;;;;;;;19.69;100.00;99199.84;5032816;28;20083;-70
2022/03/31 09:59:41;;;;;;;44.05;9.43;;;;;;;19.81;100.00;99184.25;5033092;28;20030;-69
2022/03/31 10:02:08;;;;;;;47.25;9.50;;;;;;;19.22;100.00;99140.78;5032627;28;20045;-66
2022/03/31 10:04:34;;;;;;;46.20;11.30;;;;;;;19.99;100.00;99163.91;5032741;28;20025;-70
2022/03/31 10:07:00;;;;;;;47.53;9.45;;;;;;;20.43;100.00;99176.69;5032418;28;20515;-69
2022/03/31 10:09:25;;;;;;;46.72;9.27;;;;;;;20.02;100.00;99168.84;5032186;28;20415;-69
2022/03/31 10:12:08;;;;;;;46.80;10.55;;;;;;;19.86;100.00;99166.66;5030980;28;20076;-70
2022/03/31 10:14:54;;;;;;;50.17;11.02;;;;;;;19.82;100.00;99183.31;5032276;28;20061;-69
2022/03/31 10:17:28;;;;;;;38.63;10.13;;;;;;;20.49;100.00;99207.16;5032066;28;20029;-68
2022/03/31 10:19:54;;;;;;;47.63;10.48;;;;;;;20.28;100.00;99208.09;5032560;28;20492;-70
2022/03/31 10:25:11;;;;;;;44.28;9.32;;;;;;;19.75;100.00;99165.84;5001307;28;20475;-67
2022/03/31 10:27:40;;;;;;;54.75;10.07;;;;;;;20.60;99.93;99154.66;5032347;28;20091;-69
2022/03/31 10:30:08;;;;;;;41.15;9.02;;;;;;;20.53;100.00;99174.97;5031709;28;20530;-69
2022/03/31 10:32:33;;;;;;;48.60;9.48;;;;;;;20.65;96.88;99142.97;5032744;28;20065;-70
2022/03/31 10:34:59;;;;;;;41.92;9.48;;;;;;;20.73;96.73;99153.50;5031914;28;20060;-70
2022/03/31 10:37:34;;;;;;;46.83;10.50;;;;;;;20.44;97.69;99165.38;5031886;28;20030;-69
2022/03/31 10:40:03;;;;;;;48.83;9.57;;;;;;;20.14;100.00;99151.53;5031979;28;20079;-70
2022/03/31 10:42:28;;;;;;;52.65;9.88;;;;;;;20.45;100.00;99124.91;5031549;28;20029;-69
2022/03/31 10:45:13;;;;;;;50.15;10.18;;;;;;;20.40;99.57;99134.78;5031993;28;20034;-68
2022/03/31 10:47:41;;;;;;;53.35;10.18;;;;;;;20.23;98.59;99135.31;5031890;28;20487;-69
2022/03/31 10:50:09;;;;;;;36.08;8.73;;;;;;;21.10;95.12;99140.09;5031877;28;20519;-69
2022/03/31 10:52:35;;;;;;;44.45;10.10;;;;;;;20.55;100.00;99131.78;5030474;28;20478;-70
2022/03/31 10:55:10;;;;;;;45.40;9.90;;;;;;;20.43;100.00;99155.19;5031092;28;20094;-69
2022/03/31 10:57:43;;;;;;;51.85;10.43;;;;;;;20.73;97.75;99143.16;5030338;28;20128;-70
2022/03/31 11:00:12;;;;;;;45.90;8.98;;;;;;;20.53;97.88;99141.41;5031472;28;20025;-70
2022/03/31 11:02:44;;;;;;;47.65;10.18;;;;;;;20.62;95.42;99163.06;5030663;28;20045;-70
2022/03/31 11:05:10;;;;;;;42.47;9.57;;;;;;;20.77;97.15;99161.81;5031722;28;20022;-70
2022/03/31 11:07:35;;;;;;;44.25;10.48;;;;;;;20.97;97.00;99167.91;5030899;28;20038;-70
2022/03/31 11:10:09;;;;;;;46.97;11.00;;;;;;;20.97;96.63;99158.41;5031687;28;20439;-70
2022/03/31 11:12:36;;;;;;;46.03;9.35;;;;;;;20.62;95.59;99147.56;5031393;28;20025;-69
2022/03/31 11:15:10;;;;;;;56.85;11.05;;;;;;;20.70;100.00;99120.16;5031114;28;20524;-70
2022/03/31 11:17:39;;;;;;;48.40;9.57;;;;;;;20.45;100.00;99137.81;5031198;28;20033;-70